createdAt,value
2022-08-24T00:00:04.486Z,0
2022-08-24T00:02:30.498Z,0
2022-08-24T00:04:56.595Z,0
2022-08-24T00:07:22.681Z,0
2022-08-24T00:09:48.791Z,0
2022-08-24T00:12:14.885Z,0
2022-08-24T00:14:40.981Z,0
2022-08-24T00:17:07.079Z,0
2022-08-24T00:19:32.188Z,0
2022-08-24T00:21:57.320Z,0
2022-08-24T00:24:22.427Z,0
2022-08-24T00:26:47.553Z,0
2022-08-24T00:29:13.631Z,0
2022-08-24T00:31:39.729Z,0
2022-08-24T00:34:05.833Z,0
2022-08-24T00:36:31.924Z,0
2022-08-24T00:38:58.010Z,0
2022-08-24T00:41:24.114Z,0
2022-08-24T00:43:50.209Z,0
2022-08-24T00:46:16.305Z,0
2022-08-24T00:48:42.398Z,0
2022-08-24T00:51:08.488Z,0
2022-08-24T00:53:34.587Z,0
2022-08-24T00:56:00.681Z,0
2022-08-24T00:58:25.790Z,0
2022-08-24T01:00:51.895Z,0
2022-08-24T01:03:17.992Z,0
2022-08-24T01:05:44.088Z,0
2022-08-24T01:08:10.181Z,0
2022-08-24T01:10:36.283Z,0
2022-08-24T01:13:02.376Z,0
2022-08-24T01:15:27.488Z,0
2022-08-24T01:17:52.601Z,0
2022-08-24T01:20:17.730Z,0
2022-08-24T01:22:42.836Z,0
2022-08-24T01:25:08.937Z,0
2022-08-24T01:27:34.064Z,0
2022-08-24T01:29:59.150Z,0
2022-08-24T01:32:25.266Z,0
2022-08-24T01:34:51.374Z,0
2022-08-24T01:37:17.452Z,0
2022-08-24T01:39:43.541Z,0
2022-08-24T01:42:09.636Z,0
2022-08-24T01:44:35.733Z,0
2022-08-24T01:47:01.836Z,0
2022-08-24T01:49:27.916Z,0
2022-08-24T01:51:54.027Z,0
2022-08-24T01:54:20.098Z,0
2022-08-24T01:56:46.213Z,0
2022-08-24T01:59:12.309Z,0
2022-08-24T02:01:37.417Z,0
2022-08-24T02:04:03.515Z,0
2022-08-24T02:06:29.609Z,0
2022-08-24T02:08:55.690Z,0
2022-08-24T02:11:21.786Z,0
2022-08-24T02:13:47.893Z,0
2022-08-24T02:16:13.979Z,0
2022-08-24T02:18:39.108Z,0
2022-08-24T02:21:04.207Z,0
2022-08-24T02:23:29.344Z,0
2022-08-24T02:25:54.456Z,0
2022-08-24T02:28:20.536Z,0
2022-08-24T02:30:46.642Z,0
2022-08-24T02:33:12.727Z,0
2022-08-24T02:35:38.836Z,0
2022-08-24T02:38:04.939Z,0
2022-08-24T02:40:31.025Z,0
2022-08-24T02:42:57.118Z,0
2022-08-24T02:45:23.219Z,0
2022-08-24T02:47:49.307Z,0
2022-08-24T02:50:15.420Z,0
2022-08-24T02:52:41.517Z,0
2022-08-24T02:55:07.603Z,0
2022-08-24T02:57:32.708Z,0
2022-08-24T02:59:58.803Z,0
2022-08-24T03:02:24.917Z,0
2022-08-24T03:04:51.013Z,0
2022-08-24T03:07:17.094Z,0
2022-08-24T03:09:43.192Z,0
2022-08-24T03:12:09.291Z,0
2022-08-24T03:14:34.424Z,0
2022-08-24T03:16:59.533Z,0
2022-08-24T03:19:24.649Z,0
2022-08-24T03:21:49.772Z,0
2022-08-24T03:24:15.855Z,0
2022-08-24T03:26:41.964Z,0
2022-08-24T03:29:08.061Z,0
2022-08-24T03:31:34.160Z,0
2022-08-24T03:34:00.247Z,0
2022-08-24T03:36:26.341Z,0
2022-08-24T03:38:52.436Z,0
2022-08-24T03:41:18.538Z,0
2022-08-24T03:43:44.628Z,0
2022-08-24T03:46:10.732Z,0
2022-08-24T03:48:36.831Z,0
2022-08-24T03:51:02.915Z,0
2022-08-24T03:53:28.033Z,0
2022-08-24T03:55:54.126Z,0
2022-08-24T03:58:20.231Z,0
2022-08-24T04:00:46.308Z,4
2022-08-24T04:03:12.418Z,4
2022-08-24T04:05:38.499Z,8
2022-08-24T04:08:04.616Z,12
2022-08-24T04:10:29.750Z,16
2022-08-24T04:12:54.845Z,32
2022-08-24T04:15:19.975Z,48
2022-08-24T04:17:45.080Z,68
2022-08-24T04:20:11.173Z,92
2022-08-24T04:22:37.260Z,128
2022-08-24T04:25:03.363Z,172
2022-08-24T04:27:29.464Z,216
2022-08-24T04:29:55.554Z,277
2022-08-24T04:32:21.642Z,337
2022-08-24T04:34:47.740Z,405
2022-08-24T04:37:13.839Z,477
2022-08-24T04:39:39.925Z,562
2022-08-24T04:42:06.020Z,646
2022-08-24T04:44:32.142Z,734
2022-08-24T04:46:58.204Z,823
2022-08-24T04:49:23.323Z,907
2022-08-24T04:51:49.433Z,995
2022-08-24T04:54:15.520Z,1084
2022-08-24T04:56:41.623Z,1176
2022-08-24T04:59:07.723Z,1268
2022-08-24T05:01:33.815Z,1357
2022-08-24T05:03:59.905Z,1441
2022-08-24T05:06:25.026Z,1521
2022-08-24T05:08:50.126Z,1598
2022-08-24T05:11:16.244Z,1674
2022-08-24T05:13:41.366Z,1746
2022-08-24T05:16:06.472Z,1811
2022-08-24T05:18:32.577Z,1883
2022-08-24T05:20:58.661Z,1951
2022-08-24T05:23:24.761Z,2015
2022-08-24T05:25:50.867Z,2080
2022-08-24T05:28:16.969Z,2148
2022-08-24T05:30:43.050Z,2204
2022-08-24T05:33:09.148Z,2260
2022-08-24T05:35:35.235Z,2313
2022-08-24T05:38:01.346Z,2357
2022-08-24T05:40:27.441Z,2385
2022-08-24T05:42:53.548Z,2421
2022-08-24T05:45:19.641Z,2457
2022-08-24T05:47:44.736Z,2489
2022-08-24T05:50:10.834Z,2517
2022-08-24T05:52:36.936Z,2553
2022-08-24T05:55:03.069Z,2594
2022-08-24T05:57:29.112Z,2626
2022-08-24T05:59:55.222Z,2658
2022-08-24T06:02:21.317Z,2710
2022-08-24T06:04:46.418Z,2754
2022-08-24T06:07:11.548Z,2778
2022-08-24T06:09:37.639Z,2802
2022-08-24T06:12:03.736Z,2831
2022-08-24T06:14:29.830Z,2863
2022-08-24T06:16:55.930Z,2883
2022-08-24T06:19:21.049Z,2895
2022-08-24T06:21:46.156Z,2915
2022-08-24T06:24:12.267Z,2951
2022-08-24T06:26:38.345Z,2987
2022-08-24T06:29:04.430Z,3007
2022-08-24T06:31:30.534Z,3023
2022-08-24T06:33:56.626Z,3051
2022-08-24T06:36:22.728Z,3059
2022-08-24T06:38:48.818Z,3112
2022-08-24T06:41:14.927Z,3152
2022-08-24T06:43:41.003Z,3200
2022-08-24T06:46:07.107Z,3244
2022-08-24T06:48:33.189Z,3260
2022-08-24T06:50:59.281Z,3292
2022-08-24T06:53:24.406Z,3296
2022-08-24T06:55:50.499Z,3284
2022-08-24T06:58:16.583Z,3248
2022-08-24T07:00:42.676Z,3284
2022-08-24T07:03:08.774Z,3329
2022-08-24T07:05:34.879Z,3329
2022-08-24T07:10:27.076Z,3345
2022-08-24T07:12:52.184Z,3381
2022-08-24T07:15:17.305Z,3324
2022-08-24T07:17:42.418Z,3365
2022-08-24T07:20:07.535Z,3417
2022-08-24T07:22:33.623Z,3453
2022-08-24T07:24:59.719Z,3445
2022-08-24T07:27:25.824Z,3437
2022-08-24T07:29:51.897Z,3445
2022-08-24T07:32:18.014Z,3429
2022-08-24T07:34:44.100Z,3441
2022-08-24T07:37:10.189Z,3417
2022-08-24T07:39:36.282Z,3337
2022-08-24T07:42:02.389Z,3381
2022-08-24T07:44:28.478Z,3353
2022-08-24T07:46:54.582Z,3365
2022-08-24T07:49:20.665Z,3349
2022-08-24T07:51:45.787Z,3409
2022-08-24T07:54:11.882Z,3409
2022-08-24T07:56:37.977Z,3393
2022-08-24T07:59:04.082Z,3393
2022-08-24T08:01:30.174Z,3333
2022-08-24T08:03:56.252Z,3296
2022-08-24T08:06:22.353Z,3284
2022-08-24T08:08:47.479Z,3304
2022-08-24T08:11:12.579Z,3308
2022-08-24T08:13:38.681Z,3333
2022-08-24T08:16:04.777Z,3312
2022-08-24T08:18:30.883Z,3357
2022-08-24T08:20:56.973Z,3373
2022-08-24T08:23:23.052Z,3385
2022-08-24T08:25:49.146Z,3421
2022-08-24T08:28:15.258Z,3477
2022-08-24T08:30:41.331Z,3469
2022-08-24T08:33:07.437Z,3457
2022-08-24T08:35:33.522Z,3429
2022-08-24T08:37:59.625Z,3421
2022-08-24T08:40:25.730Z,3405
2022-08-24T08:42:50.848Z,3341
2022-08-24T08:45:16.937Z,3349
2022-08-24T08:47:43.028Z,3413
2022-08-24T08:52:35.213Z,3449
2022-08-24T08:55:01.324Z,3449
2022-08-24T08:57:27.415Z,3429
2022-08-24T08:59:53.504Z,3429
2022-08-24T09:02:18.631Z,3453
2022-08-24T09:04:43.729Z,3469
2022-08-24T09:07:08.853Z,3449
2022-08-24T09:09:33.966Z,3449
2022-08-24T09:12:00.068Z,3453
2022-08-24T09:14:26.161Z,3441
2022-08-24T09:16:52.244Z,3417
2022-08-24T09:19:18.349Z,3405
2022-08-24T09:21:44.454Z,3433
2022-08-24T09:24:10.543Z,3421
2022-08-24T09:29:02.726Z,3481
2022-08-24T09:31:27.855Z,3541
2022-08-24T09:33:53.937Z,3630
2022-08-24T09:36:20.041Z,3670
2022-08-24T09:38:46.135Z,3658
2022-08-24T09:41:12.231Z,3710
2022-08-24T09:43:38.319Z,3714
2022-08-24T09:46:04.408Z,3746
2022-08-24T09:48:30.504Z,3770
2022-08-24T09:50:56.593Z,3782
2022-08-24T09:53:22.710Z,3782
2022-08-24T09:55:48.797Z,3782
2022-08-24T09:58:14.884Z,3778
2022-08-24T10:00:40.013Z,3794
2022-08-24T10:03:05.127Z,3830
2022-08-24T10:05:30.252Z,3887
2022-08-24T10:07:55.364Z,3963
2022-08-24T10:10:21.449Z,4051
2022-08-24T10:12:47.539Z,4116
2022-08-24T10:15:13.643Z,4200
2022-08-24T10:17:39.741Z,4268
2022-08-24T10:20:05.827Z,4300
2022-08-24T10:22:31.921Z,4348
2022-08-24T10:24:58.026Z,4461
2022-08-24T10:27:24.111Z,4585
2022-08-24T10:29:50.217Z,4702
2022-08-24T10:32:16.298Z,4746
2022-08-24T10:34:42.401Z,4850
2022-08-24T10:37:08.487Z,4963
2022-08-24T10:39:33.591Z,5180
2022-08-24T10:41:59.687Z,5413
2022-08-24T10:44:25.793Z,5585
2022-08-24T10:46:51.891Z,5802
2022-08-24T10:49:17.967Z,5899
2022-08-24T10:51:44.074Z,5959
2022-08-24T10:54:10.160Z,6015
2022-08-24T10:56:35.282Z,6091
2022-08-24T10:59:00.414Z,6200
2022-08-24T11:01:25.521Z,6264
2022-08-24T11:03:50.635Z,6344
2022-08-24T11:06:16.731Z,6501
2022-08-24T11:08:42.829Z,6577
2022-08-24T11:11:08.912Z,6670
2022-08-24T11:13:35.014Z,6706
2022-08-24T11:16:01.120Z,6818
2022-08-24T11:18:27.216Z,6726
2022-08-24T11:20:53.305Z,6898
2022-08-24T11:23:19.395Z,7019
2022-08-24T11:25:45.507Z,7457
2022-08-24T11:28:11.590Z,7698
2022-08-24T11:30:37.693Z,7947
2022-08-24T11:33:03.783Z,8115
2022-08-24T11:35:28.894Z,8284
2022-08-24T11:37:55.000Z,8461
2022-08-24T11:40:21.089Z,8766
2022-08-24T11:42:47.173Z,9115
2022-08-24T11:45:13.277Z,9228
2022-08-24T11:47:39.364Z,9537
2022-08-24T11:50:05.475Z,9778
2022-08-24T11:52:30.588Z,9999
2022-08-24T11:54:55.718Z,10316
2022-08-24T11:57:21.798Z,10557
2022-08-24T11:59:47.907Z,10770
2022-08-24T12:02:13.035Z,10966
2022-08-24T12:04:38.143Z,11187
2022-08-24T12:07:04.220Z,11356
2022-08-24T12:09:30.333Z,11412
2022-08-24T12:11:56.420Z,11645
2022-08-24T12:14:22.503Z,11990
2022-08-24T12:16:48.606Z,12384
2022-08-24T12:19:14.703Z,12806
2022-08-24T12:24:06.894Z,13336
2022-08-24T12:26:32.993Z,13460
2022-08-24T12:28:59.090Z,13621
2022-08-24T12:31:25.169Z,14191
2022-08-24T12:33:51.268Z,14733
2022-08-24T12:36:16.374Z,15797
2022-08-24T12:38:42.472Z,29298
2022-08-24T12:41:08.576Z,68234
2022-08-24T12:43:34.655Z,71157
2022-08-24T12:46:00.760Z,71479
2022-08-24T12:48:26.867Z,74370
2022-08-24T12:50:52.948Z,70643
2022-08-24T12:53:19.061Z,73117
2022-08-24T12:55:44.174Z,67013
2022-08-24T12:58:09.280Z,74595
2022-08-24T13:00:35.371Z,72410
2022-08-24T13:03:01.469Z,67142
2022-08-24T13:05:27.566Z,57472
2022-08-24T13:07:53.658Z,19660
2022-08-24T13:10:19.768Z,17540
2022-08-24T13:12:45.847Z,17026
2022-08-24T13:15:11.966Z,16898
2022-08-24T13:17:38.047Z,16801
2022-08-24T13:20:04.144Z,16801
2022-08-24T13:22:30.243Z,16801
2022-08-24T13:24:56.368Z,16532
2022-08-24T13:27:22.447Z,16363
2022-08-24T13:29:47.558Z,16122
2022-08-24T13:32:13.639Z,16010
2022-08-24T13:34:39.744Z,15978
2022-08-24T13:37:05.840Z,15998
2022-08-24T13:39:31.982Z,16018
2022-08-24T13:41:58.028Z,16159
2022-08-24T13:44:24.132Z,17026
2022-08-24T13:46:49.243Z,26664
2022-08-24T13:49:14.366Z,30390
2022-08-24T13:51:39.495Z,29619
2022-08-24T13:54:04.597Z,31675
2022-08-24T13:56:29.718Z,34406
2022-08-24T13:58:54.831Z,35980
2022-08-24T14:01:20.914Z,37361
2022-08-24T14:03:47.019Z,33442
2022-08-24T14:06:13.107Z,36076
2022-08-24T14:08:39.231Z,38197
2022-08-24T14:11:05.319Z,38486
2022-08-24T14:13:31.416Z,39000
2022-08-24T14:15:57.501Z,40188
2022-08-24T14:18:23.602Z,36366
2022-08-24T14:20:49.692Z,39064
2022-08-24T14:23:16.309Z,34599
2022-08-24T14:25:41.889Z,32061
2022-08-24T14:28:07.979Z,39417
2022-08-24T14:30:33.086Z,46324
2022-08-24T14:32:59.200Z,44140
2022-08-24T14:35:25.304Z,38197
2022-08-24T14:37:51.372Z,40188
2022-08-24T14:40:17.473Z,33217
2022-08-24T14:42:43.562Z,36847
2022-08-24T14:45:09.664Z,42887
2022-08-24T14:47:34.799Z,37972
2022-08-24T14:49:59.903Z,34213
2022-08-24T14:52:25.033Z,31932
2022-08-24T14:54:50.155Z,33282
2022-08-24T14:57:16.230Z,35370
2022-08-24T14:59:42.326Z,28623
2022-08-24T15:04:34.530Z,26889
2022-08-24T15:07:00.613Z,33089
2022-08-24T15:09:26.709Z,30904
2022-08-24T15:11:52.807Z,32221
2022-08-24T15:14:18.906Z,37072
2022-08-24T15:16:45.002Z,40413
2022-08-24T15:19:11.090Z,38004
2022-08-24T15:21:37.180Z,40253
2022-08-24T15:24:03.289Z,43144
2022-08-24T15:26:28.399Z,47449
2022-08-24T15:28:54.494Z,47770
2022-08-24T15:31:20.588Z,48445
2022-08-24T15:33:46.691Z,51497
2022-08-24T15:36:12.779Z,37008
2022-08-24T15:38:38.931Z,50180
2022-08-24T15:41:04.977Z,46646
2022-08-24T15:43:31.061Z,47674
2022-08-24T15:45:56.180Z,47866
2022-08-24T15:48:21.305Z,46838
2022-08-24T15:50:46.447Z,43016
2022-08-24T15:53:11.545Z,9300
2022-08-24T15:55:37.631Z,23162
2022-08-24T15:58:03.731Z,28431
2022-08-24T16:00:29.834Z,28238
2022-08-24T16:02:55.922Z,28912
2022-08-24T16:05:22.023Z,17926
2022-08-24T16:07:48.129Z,13898
2022-08-24T16:10:14.224Z,10432
2022-08-24T16:12:40.314Z,7404
2022-08-24T16:15:06.419Z,8131
2022-08-24T16:17:32.514Z,15773
2022-08-24T16:19:58.601Z,12147
2022-08-24T16:22:24.724Z,22359
2022-08-24T16:27:15.909Z,29298
2022-08-24T16:29:42.006Z,30744
2022-08-24T16:32:08.103Z,29555
2022-08-24T16:34:34.193Z,29426
2022-08-24T16:37:00.287Z,29169
2022-08-24T16:39:26.385Z,28334
2022-08-24T16:41:52.490Z,28270
2022-08-24T16:44:17.595Z,27242
2022-08-24T16:46:42.724Z,25636
2022-08-24T16:49:08.810Z,24800
2022-08-24T16:51:34.927Z,22359
2022-08-24T16:54:00.060Z,17958
2022-08-24T16:56:25.147Z,14360
2022-08-24T16:58:51.249Z,15163
2022-08-24T17:01:17.342Z,15548
2022-08-24T17:03:43.431Z,14874
2022-08-24T17:06:09.530Z,13492
2022-08-24T17:08:35.622Z,11709
2022-08-24T17:11:01.723Z,9211
2022-08-24T17:13:27.811Z,9027
2022-08-24T17:15:53.926Z,7228
2022-08-24T17:18:20.021Z,6517
2022-08-24T17:20:46.111Z,4766
2022-08-24T17:23:12.207Z,3505
2022-08-24T17:25:38.306Z,3304
2022-08-24T17:28:03.423Z,3164
2022-08-24T17:30:29.511Z,3011
2022-08-24T17:32:55.609Z,2875
2022-08-24T17:35:21.709Z,2770
2022-08-24T17:37:47.806Z,2638
2022-08-24T17:40:12.918Z,2429
2022-08-24T17:42:39.000Z,2180
2022-08-24T17:45:04.127Z,1935
2022-08-24T17:47:29.238Z,1714
2022-08-24T17:49:55.361Z,1542
2022-08-24T17:52:20.473Z,1393
2022-08-24T17:54:45.577Z,1264
2022-08-24T17:57:11.667Z,1148
2022-08-24T17:59:37.778Z,1064
2022-08-24T18:02:03.870Z,1007
2022-08-24T18:04:29.983Z,923
2022-08-24T18:06:56.042Z,803
2022-08-24T18:09:22.130Z,678
2022-08-24T18:11:48.256Z,554
2022-08-24T18:14:14.328Z,437
2022-08-24T18:16:40.421Z,353
2022-08-24T18:19:06.519Z,289
2022-08-24T18:21:32.607Z,236
2022-08-24T18:23:58.708Z,188
2022-08-24T18:26:23.832Z,140
2022-08-24T18:28:49.921Z,104
2022-08-24T18:31:16.024Z,72
2022-08-24T18:33:42.125Z,52
2022-08-24T18:36:08.206Z,36
2022-08-24T18:38:34.299Z,24
2022-08-24T18:41:00.411Z,16
2022-08-24T18:43:25.549Z,12
2022-08-24T18:45:50.623Z,4
2022-08-24T18:48:15.768Z,4
2022-08-24T18:50:40.862Z,0
2022-08-24T18:53:06.961Z,4
2022-08-24T18:55:33.064Z,0
2022-08-24T18:57:59.180Z,0
2022-08-24T19:00:25.248Z,0
2022-08-24T19:02:51.351Z,0
2022-08-24T19:05:17.434Z,0
2022-08-24T19:07:43.537Z,0
2022-08-24T19:10:09.626Z,0
2022-08-24T19:12:35.720Z,0
2022-08-24T19:15:01.819Z,0
2022-08-24T19:17:27.908Z,0
2022-08-24T19:19:54.012Z,0
2022-08-24T19:22:19.122Z,0
2022-08-24T19:24:45.220Z,0
2022-08-24T19:27:11.313Z,0
2022-08-24T19:29:37.412Z,0
2022-08-24T19:32:03.493Z,0
2022-08-24T19:34:29.608Z,0
2022-08-24T19:36:55.697Z,0
2022-08-24T19:39:20.825Z,0
2022-08-24T19:41:45.931Z,0
2022-08-24T19:44:11.054Z,0
2022-08-24T19:46:36.179Z,0
2022-08-24T19:51:28.336Z,0
2022-08-24T19:53:54.435Z,0
2022-08-24T19:56:20.534Z,0
2022-08-24T19:58:46.638Z,0
2022-08-24T20:01:12.724Z,0
2022-08-24T20:03:38.819Z,0
2022-08-24T20:06:04.906Z,0
2022-08-24T20:08:31.010Z,0
2022-08-24T20:10:57.117Z,0
2022-08-24T20:13:23.210Z,0
2022-08-24T20:15:49.295Z,0
2022-08-24T20:18:14.407Z,0
2022-08-24T20:20:40.499Z,0
2022-08-24T20:23:06.588Z,0
2022-08-24T20:25:32.700Z,0
2022-08-24T20:27:58.776Z,0
2022-08-24T20:30:24.887Z,0
2022-08-24T20:32:50.972Z,0
2022-08-24T20:35:17.076Z,0
2022-08-24T20:40:08.304Z,0
2022-08-24T20:42:33.415Z,0
2022-08-24T20:44:58.531Z,0
2022-08-24T20:47:23.640Z,0
2022-08-24T20:49:48.735Z,0
2022-08-24T20:52:14.836Z,0
2022-08-24T20:54:40.924Z,0
2022-08-24T20:57:07.026Z,0
2022-08-24T20:59:33.141Z,0
2022-08-24T21:01:59.210Z,0
2022-08-24T21:04:25.312Z,0
2022-08-24T21:06:51.411Z,0
2022-08-24T21:09:17.496Z,0
2022-08-24T21:11:43.599Z,0
2022-08-24T21:14:09.693Z,0
2022-08-24T21:16:35.788Z,0
2022-08-24T21:19:01.894Z,0
2022-08-24T21:21:27.006Z,0
2022-08-24T21:23:53.099Z,0
2022-08-24T21:26:19.199Z,0
2022-08-24T21:28:45.286Z,0
2022-08-24T21:31:11.379Z,0
2022-08-24T21:33:37.475Z,0
2022-08-24T21:36:03.569Z,0
2022-08-24T21:38:28.687Z,0
2022-08-24T21:40:53.805Z,0
2022-08-24T21:43:19.911Z,0
2022-08-24T21:45:45.995Z,0
2022-08-24T21:48:12.080Z,0
2022-08-24T21:50:38.192Z,0
2022-08-24T21:53:04.267Z,0
2022-08-24T21:55:30.368Z,0
2022-08-24T21:57:56.465Z,0
2022-08-24T22:00:22.574Z,0
2022-08-24T22:02:48.666Z,0
2022-08-24T22:05:14.766Z,0
2022-08-24T22:07:40.851Z,0
2022-08-24T22:10:06.940Z,0
2022-08-24T22:12:32.049Z,0
2022-08-24T22:14:58.165Z,0
2022-08-24T22:17:24.250Z,0
2022-08-24T22:19:50.343Z,0
2022-08-24T22:22:16.441Z,0
2022-08-24T22:24:42.542Z,0
2022-08-24T22:27:08.627Z,0
2022-08-24T22:29:33.761Z,0
2022-08-24T22:31:58.855Z,0
2022-08-24T22:34:24.003Z,0
2022-08-24T22:36:49.092Z,0
2022-08-24T22:39:14.230Z,0
2022-08-24T22:41:39.335Z,0
2022-08-24T22:44:05.414Z,0
2022-08-24T22:46:31.541Z,0
2022-08-24T22:48:57.608Z,0
2022-08-24T22:51:23.700Z,0
2022-08-24T22:53:49.798Z,0
2022-08-24T22:56:15.894Z,0
2022-08-24T22:58:41.993Z,0
2022-08-24T23:01:08.092Z,0
2022-08-24T23:03:34.195Z,0
2022-08-24T23:06:00.290Z,0
2022-08-24T23:08:26.372Z,0
2022-08-24T23:10:52.471Z,0
2022-08-24T23:13:17.592Z,0
2022-08-24T23:15:43.683Z,0
2022-08-24T23:18:09.775Z,0
2022-08-24T23:20:35.868Z,0
2022-08-24T23:23:01.953Z,0
2022-08-24T23:25:28.070Z,0
2022-08-24T23:27:54.142Z,0
2022-08-24T23:30:19.262Z,0
2022-08-24T23:32:44.377Z,0
2022-08-24T23:35:10.489Z,0
2022-08-24T23:37:36.572Z,0
2022-08-24T23:40:02.663Z,0
2022-08-24T23:42:28.747Z,0
2022-08-24T23:44:54.844Z,0
2022-08-24T23:47:20.953Z,0
2022-08-24T23:49:47.039Z,0
2022-08-24T23:52:13.154Z,0
2022-08-24T23:54:39.248Z,0
2022-08-24T23:57:05.336Z,0
2022-08-24T23:59:31.418Z,0
